UNNTUGSB

Guest
Details From UNNT - Novosibirsk Tolmachevo
To UGSB - Batumi
Flight Number -
Tags Generated
Created
Modified
Stats Distance 1,793 nm / 3,321 km
Max Altitude 0 ft / 0 m
Waypoints 4
Social Downloads 1
Likes 0
Share VATSIM

Download

Looking for another format? Having issues loading an existing format? Contact us
Advertisement - Login to hide

Notes

Generated

Route

UNNT MAMAK LU UGSB

ID Type Via Altitude Latitude Longitude Leg Dist Tot Dist Heading (true) Name
O UNNT APT - 0 ft / 0 m 55.01130˚ 82.62816˚ - 0 nm - -
MAMAK FIX - 0 ft / 0 m 43.80000˚ 45.21667˚ 1584 nm 1584 nm 261° / 232° -
LU NDB - 0 ft / 0 m 41.60083˚ 41.61389˚ 206 nm 1791 nm 232° / 229° BATUMI NDB
O UGSB APT - 0 ft / 0 m 41.61622˚ 41.59016˚ 1 nm 1793 nm 311° / 311° -

Altitude Profile

Advertisement - Login to hide

Weather


0- 5 10 15 20 25 30 35+ Temperature / ° C

Clouds and Precipitation
Forecast for 2018-05-22 12:00 UTC. Updated an hour ago

Ground ~20,000 ft ~40,000 ft Winds

UNNT

Details ICAO UNNT (OVB)
Name Novosibirsk Tolmachevo
Region Russia
Timezone Asia/Novosibirsk (UTC+7.0)
Stats Elevation 365 ft / 111 m (AMSL)
Location 55.013017° 82.651065°
Runways 2
Magnetic Variation 8.868° E

METAR

UNNT 221200Z 34002MPS 9999 OVC020CB 08/07 Q1004 R25/290160 R34/290160 NOSIG RMK QFE743/0991

Decode

TAF

TAF UNNT 221100Z 2212/2312 30003MPS 9999 BKN020CB TEMPO 2212/2312 -SHRA BKN011CB BECMG 2304/2306 36007G14MPS

Decode

Departure Runways

ID Width Length Bearing (true) Bearing (mag) Surface Threshold Offset Overrun Length
07 190 ft / 58 m 11,817 ft / 3,602 m 81.00° 72.13° Asphalt 0 ft / 0 m 250 ft / 76 m
07L 304 ft / 93 m 9,877 ft / 3,011 m 81.01° 72.14° Grass 0 ft / 0 m 0 ft / 0 m
25 190 ft / 58 m 11,817 ft / 3,602 m 261.04° 252.17° Asphalt 0 ft / 0 m 225 ft / 69 m
25R 304 ft / 93 m 9,877 ft / 3,011 m 261.05° 252.18° Grass 0 ft / 0 m 0 ft / 0 m

UGSB

Details ICAO UGSB (BUS)
Name BATUMI
Region Georgia
Timezone Asia/Tbilisi (UTC+4.0)
Stats Elevation 105 ft / 32 m (AMSL)
Location 41.609660° 41.600318°
Runways 1
Magnetic Variation 6.583° E

METAR

UGSB 221200Z 25008KT 9999 FEW030 24/19 Q1018 NOSIG

Decode

TAF

Not found

Destination Runways

ID Width Length Bearing (true) Bearing (mag) Surface Threshold Offset Overrun Length
13 150 ft / 46 m 7,321 ft / 2,232 m 130.81° 124.23° Asphalt 0 ft / 0 m 690 ft / 210 m
31 150 ft / 46 m 7,321 ft / 2,232 m 310.82° 304.24° Asphalt 0 ft / 0 m 0 ft / 0 m

Approach Navaids

Runway Type Ident Frequency Range Bearing (true) Bearing (mag) Slope Elevation
13 Localiser ILU 110.30 MHz 18 nm / 33 km 130.94° 124.36° - 121 ft / 37 m (AMSL)
13 Glidescope ILU 110.30 MHz 10 nm / 19 km 130.82° 124.23° 2.50° 127 ft / 39 m (AMSL)